sensor_id;sensor_type;location;lat;lon;timestamp;P1;durP1;ratioP1;P2;durP2;ratioP2
14141;SDS011;7151;52.246;4.820;2023-09-18T00:01:36;9.83;;;7.33;;
14141;SDS011;7151;52.246;4.820;2023-09-18T00:04:04;10.30;;;7.10;;
14141;SDS011;7151;52.246;4.820;2023-09-18T00:06:30;10.73;;;7.87;;
14141;SDS011;7151;52.246;4.820;2023-09-18T00:08:56;10.87;;;7.27;;
14141;SDS011;7151;52.246;4.820;2023-09-18T00:11:21;10.27;;;7.60;;
14141;SDS011;7151;52.246;4.820;2023-09-18T00:13:47;10.40;;;7.70;;
14141;SDS011;7151;52.246;4.820;2023-09-18T00:16:12;9.90;;;7.70;;
14141;SDS011;7151;52.246;4.820;2023-09-18T00:18:38;12.63;;;8.00;;
14141;SDS011;7151;52.246;4.820;2023-09-18T00:21:04;9.57;;;7.10;;
14141;SDS011;7151;52.246;4.820;2023-09-18T00:23:31;8.93;;;6.60;;
14141;SDS011;7151;52.246;4.820;2023-09-18T00:25:57;8.60;;;7.10;;
14141;SDS011;7151;52.246;4.820;2023-09-18T00:28:23;11.90;;;7.30;;
14141;SDS011;7151;52.246;4.820;2023-09-18T00:30:49;12.27;;;7.57;;
14141;SDS011;7151;52.246;4.820;2023-09-18T00:33:15;9.20;;;6.93;;
14141;SDS011;7151;52.246;4.820;2023-09-18T00:35:44;11.57;;;7.80;;
14141;SDS011;7151;52.246;4.820;2023-09-18T00:38:14;11.40;;;8.20;;
14141;SDS011;7151;52.246;4.820;2023-09-18T00:40:40;9.47;;;7.07;;
14141;SDS011;7151;52.246;4.820;2023-09-18T00:43:06;9.53;;;7.60;;
14141;SDS011;7151;52.246;4.820;2023-09-18T00:45:33;9.97;;;7.87;;
14141;SDS011;7151;52.246;4.820;2023-09-18T00:48:00;10.87;;;8.13;;
14141;SDS011;7151;52.246;4.820;2023-09-18T00:50:25;10.07;;;7.37;;
14141;SDS011;7151;52.246;4.820;2023-09-18T00:52:51;9.87;;;8.13;;
14141;SDS011;7151;52.246;4.820;2023-09-18T00:55:17;10.57;;;7.70;;
14141;SDS011;7151;52.246;4.820;2023-09-18T00:57:43;10.03;;;7.43;;
14141;SDS011;7151;52.246;4.820;2023-09-18T01:00:10;9.63;;;7.07;;
14141;SDS011;7151;52.246;4.820;2023-09-18T01:02:42;9.73;;;7.07;;
14141;SDS011;7151;52.246;4.820;2023-09-18T01:05:10;9.90;;;7.13;;
14141;SDS011;7151;52.246;4.820;2023-09-18T01:07:35;10.33;;;7.53;;
14141;SDS011;7151;52.246;4.820;2023-09-18T01:10:01;10.77;;;7.80;;
14141;SDS011;7151;52.246;4.820;2023-09-18T01:12:36;13.43;;;8.07;;
14141;SDS011;7151;52.246;4.820;2023-09-18T01:17:39;9.50;;;7.63;;
14141;SDS011;7151;52.246;4.820;2023-09-18T01:20:10;8.67;;;7.20;;
14141;SDS011;7151;52.246;4.820;2023-09-18T01:22:36;10.53;;;7.47;;
14141;SDS011;7151;52.246;4.820;2023-09-18T01:25:02;9.90;;;7.53;;
14141;SDS011;7151;52.246;4.820;2023-09-18T01:27:28;10.60;;;7.30;;
14141;SDS011;7151;52.246;4.820;2023-09-18T01:29:53;11.70;;;6.97;;
14141;SDS011;7151;52.246;4.820;2023-09-18T01:32:19;10.17;;;7.50;;
14141;SDS011;7151;52.246;4.820;2023-09-18T01:34:50;9.57;;;6.93;;
14141;SDS011;7151;52.246;4.820;2023-09-18T01:37:17;8.60;;;7.00;;
14141;SDS011;7151;52.246;4.820;2023-09-18T01:39:46;9.77;;;7.30;;
14141;SDS011;7151;52.246;4.820;2023-09-18T01:42:14;8.87;;;6.27;;
14141;SDS011;7151;52.246;4.820;2023-09-18T01:44:40;9.60;;;6.93;;
14141;SDS011;7151;52.246;4.820;2023-09-18T01:47:07;10.60;;;7.63;;
14141;SDS011;7151;52.246;4.820;2023-09-18T01:49:38;8.93;;;6.80;;
14141;SDS011;7151;52.246;4.820;2023-09-18T01:52:05;9.37;;;6.93;;
14141;SDS011;7151;52.246;4.820;2023-09-18T01:54:32;11.10;;;7.47;;
14141;SDS011;7151;52.246;4.820;2023-09-18T01:56:59;8.47;;;6.67;;
14141;SDS011;7151;52.246;4.820;2023-09-18T01:59:24;10.37;;;7.17;;
14141;SDS011;7151;52.246;4.820;2023-09-18T02:01:50;9.37;;;7.00;;
14141;SDS011;7151;52.246;4.820;2023-09-18T02:04:17;9.80;;;7.40;;
14141;SDS011;7151;52.246;4.820;2023-09-18T02:06:43;10.17;;;7.30;;
14141;SDS011;7151;52.246;4.820;2023-09-18T02:09:09;9.47;;;7.40;;
14141;SDS011;7151;52.246;4.820;2023-09-18T02:11:36;9.17;;;7.37;;
14141;SDS011;7151;52.246;4.820;2023-09-18T02:14:03;11.40;;;7.53;;
14141;SDS011;7151;52.246;4.820;2023-09-18T02:16:32;8.67;;;6.37;;
14141;SDS011;7151;52.246;4.820;2023-09-18T02:18:58;8.53;;;6.40;;
14141;SDS011;7151;52.246;4.820;2023-09-18T02:21:23;10.33;;;6.40;;
14141;SDS011;7151;52.246;4.820;2023-09-18T02:23:52;8.93;;;6.77;;
14141;SDS011;7151;52.246;4.820;2023-09-18T02:26:19;8.97;;;5.70;;
14141;SDS011;7151;52.246;4.820;2023-09-18T02:28:45;7.90;;;6.83;;
14141;SDS011;7151;52.246;4.820;2023-09-18T02:31:10;9.47;;;6.80;;
14141;SDS011;7151;52.246;4.820;2023-09-18T02:33:37;9.30;;;7.00;;
14141;SDS011;7151;52.246;4.820;2023-09-18T02:36:03;8.13;;;6.00;;
14141;SDS011;7151;52.246;4.820;2023-09-18T02:38:28;11.93;;;6.80;;
14141;SDS011;7151;52.246;4.820;2023-09-18T02:40:57;9.83;;;6.03;;
14141;SDS011;7151;52.246;4.820;2023-09-18T02:43:23;9.20;;;6.50;;
14141;SDS011;7151;52.246;4.820;2023-09-18T02:45:49;9.60;;;6.23;;
14141;SDS011;7151;52.246;4.820;2023-09-18T02:48:16;8.10;;;6.50;;
14141;SDS011;7151;52.246;4.820;2023-09-18T02:50:41;8.70;;;6.43;;
14141;SDS011;7151;52.246;4.820;2023-09-18T02:53:07;9.00;;;6.83;;
14141;SDS011;7151;52.246;4.820;2023-09-18T02:55:41;8.27;;;6.37;;
14141;SDS011;7151;52.246;4.820;2023-09-18T02:58:06;10.30;;;7.33;;
14141;SDS011;7151;52.246;4.820;2023-09-18T03:00:34;8.43;;;6.70;;
14141;SDS011;7151;52.246;4.820;2023-09-18T03:02:59;8.83;;;7.10;;
14141;SDS011;7151;52.246;4.820;2023-09-18T03:05:25;10.63;;;7.83;;
14141;SDS011;7151;52.246;4.820;2023-09-18T03:07:51;9.60;;;6.87;;
14141;SDS011;7151;52.246;4.820;2023-09-18T03:10:17;12.37;;;7.53;;
14141;SDS011;7151;52.246;4.820;2023-09-18T03:12:43;9.43;;;7.47;;
14141;SDS011;7151;52.246;4.820;2023-09-18T03:15:12;12.50;;;7.60;;
14141;SDS011;7151;52.246;4.820;2023-09-18T03:17:38;9.90;;;7.47;;
14141;SDS011;7151;52.246;4.820;2023-09-18T03:20:06;9.43;;;7.37;;
14141;SDS011;7151;52.246;4.820;2023-09-18T03:22:32;9.50;;;7.07;;
14141;SDS011;7151;52.246;4.820;2023-09-18T03:24:57;8.90;;;7.07;;
14141;SDS011;7151;52.246;4.820;2023-09-18T03:27:23;11.53;;;8.17;;
14141;SDS011;7151;52.246;4.820;2023-09-18T03:29:53;12.70;;;7.77;;
14141;SDS011;7151;52.246;4.820;2023-09-18T03:32:19;11.77;;;7.30;;
14141;SDS011;7151;52.246;4.820;2023-09-18T03:34:45;11.57;;;7.80;;
14141;SDS011;7151;52.246;4.820;2023-09-18T03:37:10;11.87;;;8.50;;
14141;SDS011;7151;52.246;4.820;2023-09-18T03:39:36;10.70;;;8.23;;
14141;SDS011;7151;52.246;4.820;2023-09-18T03:42:01;11.43;;;7.87;;
14141;SDS011;7151;52.246;4.820;2023-09-18T03:44:28;9.37;;;8.07;;
14141;SDS011;7151;52.246;4.820;2023-09-18T03:46:53;14.13;;;7.67;;
14141;SDS011;7151;52.246;4.820;2023-09-18T03:49:19;12.33;;;7.83;;
14141;SDS011;7151;52.246;4.820;2023-09-18T03:51:45;13.57;;;8.10;;
14141;SDS011;7151;52.246;4.820;2023-09-18T03:54:11;11.43;;;8.60;;
14141;SDS011;7151;52.246;4.820;2023-09-18T03:56:36;11.27;;;8.00;;
14141;SDS011;7151;52.246;4.820;2023-09-18T03:59:02;13.47;;;8.83;;
14141;SDS011;7151;52.246;4.820;2023-09-18T04:01:29;10.40;;;7.10;;
14141;SDS011;7151;52.246;4.820;2023-09-18T04:03:55;10.97;;;8.30;;
14141;SDS011;7151;52.246;4.820;2023-09-18T04:06:21;11.00;;;8.23;;
14141;SDS011;7151;52.246;4.820;2023-09-18T04:08:49;13.13;;;8.03;;
14141;SDS011;7151;52.246;4.820;2023-09-18T04:11:14;11.80;;;8.87;;
14141;SDS011;7151;52.246;4.820;2023-09-18T04:13:40;14.10;;;9.23;;
14141;SDS011;7151;52.246;4.820;2023-09-18T04:16:06;12.37;;;9.23;;
14141;SDS011;7151;52.246;4.820;2023-09-18T04:18:32;10.83;;;8.40;;
14141;SDS011;7151;52.246;4.820;2023-09-18T04:20:58;9.60;;;7.10;;
14141;SDS011;7151;52.246;4.820;2023-09-18T04:23:25;13.53;;;8.00;;
14141;SDS011;7151;52.246;4.820;2023-09-18T04:25:52;10.93;;;7.37;;
14141;SDS011;7151;52.246;4.820;2023-09-18T04:28:21;8.07;;;6.20;;
14141;SDS011;7151;52.246;4.820;2023-09-18T04:30:47;9.90;;;6.27;;
14141;SDS011;7151;52.246;4.820;2023-09-18T04:33:13;7.73;;;5.43;;
14141;SDS011;7151;52.246;4.820;2023-09-18T04:35:39;5.53;;;4.53;;
14141;SDS011;7151;52.246;4.820;2023-09-18T04:38:08;5.87;;;4.60;;
14141;SDS011;7151;52.246;4.820;2023-09-18T04:40:40;8.03;;;4.97;;
14141;SDS011;7151;52.246;4.820;2023-09-18T04:43:05;8.40;;;5.10;;
14141;SDS011;7151;52.246;4.820;2023-09-18T04:45:31;4.60;;;4.10;;
14141;SDS011;7151;52.246;4.820;2023-09-18T04:47:57;5.40;;;4.57;;
14141;SDS011;7151;52.246;4.820;2023-09-18T04:50:23;7.20;;;5.20;;
14141;SDS011;7151;52.246;4.820;2023-09-18T04:52:51;7.10;;;5.10;;
14141;SDS011;7151;52.246;4.820;2023-09-18T04:55:17;7.90;;;5.03;;
14141;SDS011;7151;52.246;4.820;2023-09-18T04:57:43;8.50;;;4.97;;
14141;SDS011;7151;52.246;4.820;2023-09-18T05:00:08;6.00;;;5.40;;
14141;SDS011;7151;52.246;4.820;2023-09-18T05:02:37;5.53;;;4.33;;
14141;SDS011;7151;52.246;4.820;2023-09-18T05:05:04;6.70;;;4.63;;
14141;SDS011;7151;52.246;4.820;2023-09-18T05:07:30;6.07;;;4.87;;
14141;SDS011;7151;52.246;4.820;2023-09-18T05:09:56;7.10;;;5.30;;
14141;SDS011;7151;52.246;4.820;2023-09-18T05:12:22;6.70;;;4.50;;
14141;SDS011;7151;52.246;4.820;2023-09-18T05:14:48;7.13;;;4.83;;
14141;SDS011;7151;52.246;4.820;2023-09-18T05:17:14;6.73;;;4.77;;
14141;SDS011;7151;52.246;4.820;2023-09-18T05:19:41;9.13;;;5.10;;
14141;SDS011;7151;52.246;4.820;2023-09-18T05:22:10;7.13;;;4.47;;
14141;SDS011;7151;52.246;4.820;2023-09-18T05:24:39;7.37;;;4.93;;
14141;SDS011;7151;52.246;4.820;2023-09-18T05:27:05;7.03;;;4.83;;
14141;SDS011;7151;52.246;4.820;2023-09-18T05:29:32;5.73;;;4.70;;
14141;SDS011;7151;52.246;4.820;2023-09-18T05:32:00;7.07;;;4.77;;
14141;SDS011;7151;52.246;4.820;2023-09-18T05:34:25;7.60;;;5.53;;
14141;SDS011;7151;52.246;4.820;2023-09-18T05:36:51;7.90;;;5.20;;
14141;SDS011;7151;52.246;4.820;2023-09-18T05:39:17;8.53;;;4.73;;
14141;SDS011;7151;52.246;4.820;2023-09-18T05:41:43;7.63;;;5.40;;
14141;SDS011;7151;52.246;4.820;2023-09-18T05:44:08;6.20;;;5.17;;
14141;SDS011;7151;52.246;4.820;2023-09-18T05:46:34;7.43;;;5.47;;
14141;SDS011;7151;52.246;4.820;2023-09-18T05:49:01;7.20;;;5.10;;
14141;SDS011;7151;52.246;4.820;2023-09-18T05:51:27;9.03;;;5.10;;
14141;SDS011;7151;52.246;4.820;2023-09-18T05:53:53;8.07;;;5.17;;
14141;SDS011;7151;52.246;4.820;2023-09-18T05:56:18;7.00;;;5.70;;
14141;SDS011;7151;52.246;4.820;2023-09-18T05:58:44;8.43;;;5.40;;
14141;SDS011;7151;52.246;4.820;2023-09-18T06:01:09;7.13;;;5.30;;
14141;SDS011;7151;52.246;4.820;2023-09-18T06:03:35;8.20;;;6.03;;
14141;SDS011;7151;52.246;4.820;2023-09-18T06:06:04;8.80;;;6.67;;
14141;SDS011;7151;52.246;4.820;2023-09-18T06:08:30;6.77;;;6.03;;
14141;SDS011;7151;52.246;4.820;2023-09-18T06:10:56;9.63;;;6.20;;
14141;SDS011;7151;52.246;4.820;2023-09-18T06:13:24;10.30;;;6.23;;
14141;SDS011;7151;52.246;4.820;2023-09-18T06:15:50;9.17;;;6.60;;
14141;SDS011;7151;52.246;4.820;2023-09-18T06:18:17;9.43;;;6.37;;
14141;SDS011;7151;52.246;4.820;2023-09-18T06:20:46;8.90;;;5.93;;
14141;SDS011;7151;52.246;4.820;2023-09-18T06:23:13;10.27;;;6.67;;
14141;SDS011;7151;52.246;4.820;2023-09-18T06:25:41;6.23;;;5.63;;
14141;SDS011;7151;52.246;4.820;2023-09-18T06:28:07;8.33;;;6.47;;
14141;SDS011;7151;52.246;4.820;2023-09-18T06:30:33;8.27;;;6.27;;
14141;SDS011;7151;52.246;4.820;2023-09-18T06:33:02;7.77;;;5.90;;
14141;SDS011;7151;52.246;4.820;2023-09-18T06:35:29;8.93;;;5.97;;
14141;SDS011;7151;52.246;4.820;2023-09-18T06:37:55;9.87;;;6.03;;
14141;SDS011;7151;52.246;4.820;2023-09-18T06:40:23;6.87;;;5.60;;
14141;SDS011;7151;52.246;4.820;2023-09-18T06:42:50;8.57;;;5.73;;
14141;SDS011;7151;52.246;4.820;2023-09-18T06:45:16;8.47;;;5.67;;
14141;SDS011;7151;52.246;4.820;2023-09-18T06:47:42;7.70;;;5.80;;
14141;SDS011;7151;52.246;4.820;2023-09-18T06:50:08;7.13;;;5.37;;
14141;SDS011;7151;52.246;4.820;2023-09-18T06:52:34;7.13;;;5.30;;
14141;SDS011;7151;52.246;4.820;2023-09-18T06:55:00;8.20;;;5.47;;
14141;SDS011;7151;52.246;4.820;2023-09-18T06:57:25;8.00;;;5.00;;
14141;SDS011;7151;52.246;4.820;2023-09-18T06:59:52;7.50;;;5.20;;
14141;SDS011;7151;52.246;4.820;2023-09-18T07:02:18;7.10;;;5.10;;
14141;SDS011;7151;52.246;4.820;2023-09-18T07:04:43;8.73;;;4.93;;
14141;SDS011;7151;52.246;4.820;2023-09-18T07:07:12;5.70;;;4.23;;
14141;SDS011;7151;52.246;4.820;2023-09-18T07:09:38;6.03;;;4.90;;
14141;SDS011;7151;52.246;4.820;2023-09-18T07:12:05;6.03;;;4.30;;
14141;SDS011;7151;52.246;4.820;2023-09-18T07:14:31;7.60;;;4.67;;
14141;SDS011;7151;52.246;4.820;2023-09-18T07:16:56;7.07;;;4.40;;
14141;SDS011;7151;52.246;4.820;2023-09-18T07:19:22;8.30;;;5.17;;
14141;SDS011;7151;52.246;4.820;2023-09-18T07:21:47;5.53;;;4.43;;
14141;SDS011;7151;52.246;4.820;2023-09-18T07:24:14;5.27;;;4.20;;
14141;SDS011;7151;52.246;4.820;2023-09-18T07:26:43;7.03;;;4.60;;
14141;SDS011;7151;52.246;4.820;2023-09-18T07:29:14;11.70;;;4.90;;
14141;SDS011;7151;52.246;4.820;2023-09-18T07:31:41;15.07;;;5.67;;
14141;SDS011;7151;52.246;4.820;2023-09-18T07:34:08;26.37;;;8.47;;
14141;SDS011;7151;52.246;4.820;2023-09-18T07:36:34;15.43;;;6.33;;
14141;SDS011;7151;52.246;4.820;2023-09-18T07:39:00;7.23;;;4.57;;
14141;SDS011;7151;52.246;4.820;2023-09-18T07:41:25;9.40;;;4.77;;
14141;SDS011;7151;52.246;4.820;2023-09-18T07:43:51;6.40;;;4.13;;
14141;SDS011;7151;52.246;4.820;2023-09-18T07:46:16;8.63;;;4.90;;
14141;SDS011;7151;52.246;4.820;2023-09-18T07:48:42;12.70;;;5.43;;
14141;SDS011;7151;52.246;4.820;2023-09-18T07:51:11;7.57;;;5.40;;
14141;SDS011;7151;52.246;4.820;2023-09-18T07:53:37;4.70;;;3.40;;
14141;SDS011;7151;52.246;4.820;2023-09-18T07:56:03;5.87;;;3.93;;
14141;SDS011;7151;52.246;4.820;2023-09-18T07:58:32;6.67;;;3.70;;
14141;SDS011;7151;52.246;4.820;2023-09-18T08:00:58;5.47;;;3.63;;
14141;SDS011;7151;52.246;4.820;2023-09-18T08:03:24;6.47;;;3.60;;
14141;SDS011;7151;52.246;4.820;2023-09-18T08:05:54;9.03;;;3.90;;
14141;SDS011;7151;52.246;4.820;2023-09-18T08:08:20;3.67;;;3.00;;
14141;SDS011;7151;52.246;4.820;2023-09-18T08:10:47;6.13;;;2.87;;
14141;SDS011;7151;52.246;4.820;2023-09-18T08:13:13;6.60;;;2.93;;
14141;SDS011;7151;52.246;4.820;2023-09-18T08:15:39;7.83;;;3.40;;
14141;SDS011;7151;52.246;4.820;2023-09-18T08:18:04;8.03;;;3.13;;
14141;SDS011;7151;52.246;4.820;2023-09-18T08:20:30;15.87;;;4.77;;
14141;SDS011;7151;52.246;4.820;2023-09-18T08:22:56;16.53;;;5.27;;
14141;SDS011;7151;52.246;4.820;2023-09-18T08:25:21;8.83;;;3.80;;
14141;SDS011;7151;52.246;4.820;2023-09-18T08:27:47;16.90;;;5.43;;
14141;SDS011;7151;52.246;4.820;2023-09-18T08:30:13;12.83;;;3.73;;
14141;SDS011;7151;52.246;4.820;2023-09-18T08:32:40;5.53;;;3.17;;
14141;SDS011;7151;52.246;4.820;2023-09-18T08:35:07;5.73;;;2.13;;
14141;SDS011;7151;52.246;4.820;2023-09-18T08:37:33;13.00;;;4.50;;
14141;SDS011;7151;52.246;4.820;2023-09-18T08:39:59;11.30;;;3.00;;
14141;SDS011;7151;52.246;4.820;2023-09-18T08:42:34;12.23;;;3.67;;
14141;SDS011;7151;52.246;4.820;2023-09-18T08:45:03;9.00;;;3.50;;
14141;SDS011;7151;52.246;4.820;2023-09-18T08:47:35;8.00;;;2.70;;
14141;SDS011;7151;52.246;4.820;2023-09-18T08:50:03;3.33;;;2.13;;
14141;SDS011;7151;52.246;4.820;2023-09-18T08:52:29;4.27;;;2.17;;
14141;SDS011;7151;52.246;4.820;2023-09-18T08:54:55;3.57;;;2.77;;
14141;SDS011;7151;52.246;4.820;2023-09-18T08:57:21;3.67;;;2.10;;
14141;SDS011;7151;52.246;4.820;2023-09-18T08:59:49;2.93;;;2.07;;
14141;SDS011;7151;52.246;4.820;2023-09-18T09:02:17;3.33;;;1.90;;
14141;SDS011;7151;52.246;4.820;2023-09-18T09:04:43;2.40;;;1.80;;
14141;SDS011;7151;52.246;4.820;2023-09-18T09:07:08;2.70;;;2.00;;
14141;SDS011;7151;52.246;4.820;2023-09-18T09:09:35;2.00;;;1.50;;
14141;SDS011;7151;52.246;4.820;2023-09-18T09:12:00;4.03;;;1.93;;
14141;SDS011;7151;52.246;4.820;2023-09-18T09:14:26;4.97;;;1.90;;
14141;SDS011;7151;52.246;4.820;2023-09-18T09:16:55;3.60;;;1.90;;
14141;SDS011;7151;52.246;4.820;2023-09-18T09:19:32;2.37;;;1.67;;
14141;SDS011;7151;52.246;4.820;2023-09-18T09:22:02;2.50;;;1.77;;
14141;SDS011;7151;52.246;4.820;2023-09-18T09:24:41;3.63;;;2.10;;
14141;SDS011;7151;52.246;4.820;2023-09-18T09:27:08;2.00;;;1.90;;
14141;SDS011;7151;52.246;4.820;2023-09-18T09:29:39;2.07;;;1.87;;
14141;SDS011;7151;52.246;4.820;2023-09-18T09:32:15;3.27;;;1.80;;
14141;SDS011;7151;52.246;4.820;2023-09-18T09:34:42;6.60;;;2.07;;
14141;SDS011;7151;52.246;4.820;2023-09-18T09:37:08;2.90;;;1.93;;
14141;SDS011;7151;52.246;4.820;2023-09-18T09:39:45;2.27;;;1.97;;
14141;SDS011;7151;52.246;4.820;2023-09-18T09:42:18;1.70;;;1.60;;
14141;SDS011;7151;52.246;4.820;2023-09-18T09:45:03;3.87;;;2.20;;
14141;SDS011;7151;52.246;4.820;2023-09-18T09:47:36;2.60;;;2.20;;
14141;SDS011;7151;52.246;4.820;2023-09-18T09:50:05;2.97;;;2.33;;
14141;SDS011;7151;52.246;4.820;2023-09-18T09:52:35;5.23;;;2.27;;
14141;SDS011;7151;52.246;4.820;2023-09-18T09:55:17;5.63;;;2.77;;
14141;SDS011;7151;52.246;4.820;2023-09-18T09:57:48;7.77;;;3.30;;
14141;SDS011;7151;52.246;4.820;2023-09-18T10:00:15;4.13;;;3.00;;
14141;SDS011;7151;52.246;4.820;2023-09-18T10:03:01;2.40;;;2.20;;
14141;SDS011;7151;52.246;4.820;2023-09-18T10:05:30;4.13;;;2.17;;
14141;SDS011;7151;52.246;4.820;2023-09-18T10:07:59;3.43;;;2.80;;
14141;SDS011;7151;52.246;4.820;2023-09-18T10:10:29;4.97;;;2.50;;
14141;SDS011;7151;52.246;4.820;2023-09-18T10:12:58;2.30;;;2.10;;
14141;SDS011;7151;52.246;4.820;2023-09-18T10:15:30;3.30;;;1.90;;
14141;SDS011;7151;52.246;4.820;2023-09-18T10:17:58;2.53;;;1.67;;
14141;SDS011;7151;52.246;4.820;2023-09-18T10:20:27;3.07;;;1.60;;
14141;SDS011;7151;52.246;4.820;2023-09-18T10:22:56;2.20;;;1.80;;
14141;SDS011;7151;52.246;4.820;2023-09-18T10:25:24;1.87;;;1.77;;
14141;SDS011;7151;52.246;4.820;2023-09-18T10:27:56;2.70;;;2.50;;
14141;SDS011;7151;52.246;4.820;2023-09-18T10:30:23;3.77;;;2.30;;
14141;SDS011;7151;52.246;4.820;2023-09-18T10:32:50;2.90;;;2.50;;
14141;SDS011;7151;52.246;4.820;2023-09-18T10:35:16;2.23;;;1.97;;
14141;SDS011;7151;52.246;4.820;2023-09-18T10:37:45;2.20;;;2.10;;
14141;SDS011;7151;52.246;4.820;2023-09-18T10:40:13;3.17;;;2.43;;
14141;SDS011;7151;52.246;4.820;2023-09-18T10:42:39;3.40;;;2.70;;
14141;SDS011;7151;52.246;4.820;2023-09-18T10:45:06;2.10;;;1.93;;
14141;SDS011;7151;52.246;4.820;2023-09-18T10:47:35;2.87;;;2.20;;
14141;SDS011;7151;52.246;4.820;2023-09-18T10:50:07;3.23;;;2.93;;
14141;SDS011;7151;52.246;4.820;2023-09-18T10:52:34;4.63;;;2.77;;
14141;SDS011;7151;52.246;4.820;2023-09-18T10:55:01;5.23;;;2.77;;
14141;SDS011;7151;52.246;4.820;2023-09-18T10:57:36;5.47;;;2.90;;
14141;SDS011;7151;52.246;4.820;2023-09-18T11:00:03;3.23;;;2.70;;
14141;SDS011;7151;52.246;4.820;2023-09-18T11:02:40;3.20;;;2.70;;
14141;SDS011;7151;52.246;4.820;2023-09-18T11:05:06;6.20;;;2.63;;
14141;SDS011;7151;52.246;4.820;2023-09-18T11:07:31;3.07;;;2.77;;
14141;SDS011;7151;52.246;4.820;2023-09-18T11:09:57;2.80;;;2.60;;
14141;SDS011;7151;52.246;4.820;2023-09-18T11:12:23;3.67;;;2.33;;
14141;SDS011;7151;52.246;4.820;2023-09-18T11:15:08;2.87;;;2.67;;
14141;SDS011;7151;52.246;4.820;2023-09-18T11:17:38;3.00;;;2.67;;
14141;SDS011;7151;52.246;4.820;2023-09-18T11:20:09;4.07;;;2.50;;
14141;SDS011;7151;52.246;4.820;2023-09-18T11:25:39;5.07;;;2.47;;
14141;SDS011;7151;52.246;4.820;2023-09-18T11:28:22;2.50;;;2.23;;
14141;SDS011;7151;52.246;4.820;2023-09-18T11:30:52;1.87;;;1.77;;
14141;SDS011;7151;52.246;4.820;2023-09-18T11:33:37;2.63;;;2.03;;
14141;SDS011;7151;52.246;4.820;2023-09-18T11:36:06;2.87;;;1.97;;
14141;SDS011;7151;52.246;4.820;2023-09-18T11:38:32;3.23;;;1.90;;
14141;SDS011;7151;52.246;4.820;2023-09-18T11:41:34;1.50;;;1.40;;
14141;SDS011;7151;52.246;4.820;2023-09-18T11:46:37;3.70;;;1.67;;
14141;SDS011;7151;52.246;4.820;2023-09-18T11:49:05;5.30;;;2.47;;
14141;SDS011;7151;52.246;4.820;2023-09-18T11:51:37;5.00;;;2.10;;
14141;SDS011;7151;52.246;4.820;2023-09-18T11:54:03;2.23;;;1.53;;
14141;SDS011;7151;52.246;4.820;2023-09-18T11:56:35;2.67;;;1.93;;
14141;SDS011;7151;52.246;4.820;2023-09-18T11:59:01;3.37;;;1.90;;
14141;SDS011;7151;52.246;4.820;2023-09-18T12:01:30;1.73;;;1.63;;
14141;SDS011;7151;52.246;4.820;2023-09-18T12:04:02;2.07;;;1.87;;
14141;SDS011;7151;52.246;4.820;2023-09-18T12:06:36;4.67;;;2.27;;
14141;SDS011;7151;52.246;4.820;2023-09-18T12:09:04;2.27;;;1.90;;
14141;SDS011;7151;52.246;4.820;2023-09-18T12:11:34;1.87;;;1.70;;
14141;SDS011;7151;52.246;4.820;2023-09-18T12:14:00;1.97;;;1.57;;
14141;SDS011;7151;52.246;4.820;2023-09-18T12:16:27;2.63;;;1.73;;
14141;SDS011;7151;52.246;4.820;2023-09-18T12:18:53;3.03;;;2.10;;
14141;SDS011;7151;52.246;4.820;2023-09-18T12:21:19;4.37;;;2.00;;
14141;SDS011;7151;52.246;4.820;2023-09-18T12:23:45;3.07;;;2.30;;
14141;SDS011;7151;52.246;4.820;2023-09-18T12:26:12;3.07;;;2.03;;
14141;SDS011;7151;52.246;4.820;2023-09-18T12:28:39;3.13;;;1.90;;
14141;SDS011;7151;52.246;4.820;2023-09-18T12:31:06;4.83;;;2.33;;
14141;SDS011;7151;52.246;4.820;2023-09-18T12:33:35;2.97;;;2.43;;
14141;SDS011;7151;52.246;4.820;2023-09-18T12:36:05;2.23;;;2.03;;
14141;SDS011;7151;52.246;4.820;2023-09-18T12:38:31;2.77;;;2.10;;
14141;SDS011;7151;52.246;4.820;2023-09-18T12:40:57;3.57;;;2.00;;
14141;SDS011;7151;52.246;4.820;2023-09-18T12:43:35;2.63;;;2.40;;
14141;SDS011;7151;52.246;4.820;2023-09-18T12:46:06;2.43;;;2.23;;
14141;SDS011;7151;52.246;4.820;2023-09-18T12:48:36;3.33;;;2.13;;
14141;SDS011;7151;52.246;4.820;2023-09-18T12:51:06;3.57;;;1.93;;
14141;SDS011;7151;52.246;4.820;2023-09-18T12:53:33;2.43;;;1.73;;
14141;SDS011;7151;52.246;4.820;2023-09-18T12:56:05;3.93;;;2.10;;
14141;SDS011;7151;52.246;4.820;2023-09-18T12:58:31;2.53;;;1.93;;
14141;SDS011;7151;52.246;4.820;2023-09-18T13:00:57;4.50;;;2.33;;
14141;SDS011;7151;52.246;4.820;2023-09-18T13:03:22;2.47;;;2.00;;
14141;SDS011;7151;52.246;4.820;2023-09-18T13:05:48;3.03;;;1.73;;
14141;SDS011;7151;52.246;4.820;2023-09-18T13:08:21;3.17;;;1.90;;
14141;SDS011;7151;52.246;4.820;2023-09-18T13:10:47;2.67;;;1.90;;
14141;SDS011;7151;52.246;4.820;2023-09-18T13:13:18;3.20;;;1.83;;
14141;SDS011;7151;52.246;4.820;2023-09-18T13:15:44;1.73;;;1.60;;
14141;SDS011;7151;52.246;4.820;2023-09-18T13:18:13;3.43;;;2.10;;
14141;SDS011;7151;52.246;4.820;2023-09-18T13:20:40;6.93;;;2.07;;
14141;SDS011;7151;52.246;4.820;2023-09-18T13:23:06;3.33;;;2.07;;
14141;SDS011;7151;52.246;4.820;2023-09-18T13:25:33;4.50;;;2.03;;
14141;SDS011;7151;52.246;4.820;2023-09-18T13:28:01;2.23;;;2.00;;
14141;SDS011;7151;52.246;4.820;2023-09-18T13:30:28;3.33;;;1.87;;
14141;SDS011;7151;52.246;4.820;2023-09-18T13:33:05;3.07;;;2.13;;
14141;SDS011;7151;52.246;4.820;2023-09-18T13:35:33;3.70;;;1.83;;
14141;SDS011;7151;52.246;4.820;2023-09-18T13:38:06;3.37;;;1.80;;
14141;SDS011;7151;52.246;4.820;2023-09-18T13:40:33;2.13;;;1.87;;
14141;SDS011;7151;52.246;4.820;2023-09-18T13:43:03;1.83;;;1.67;;
14141;SDS011;7151;52.246;4.820;2023-09-18T13:45:30;2.97;;;1.80;;
14141;SDS011;7151;52.246;4.820;2023-09-18T13:47:56;2.83;;;1.67;;
14141;SDS011;7151;52.246;4.820;2023-09-18T13:50:21;2.07;;;1.70;;
14141;SDS011;7151;52.246;4.820;2023-09-18T13:52:47;2.03;;;1.83;;
14141;SDS011;7151;52.246;4.820;2023-09-18T13:55:13;2.57;;;1.70;;
14141;SDS011;7151;52.246;4.820;2023-09-18T13:57:39;2.17;;;1.97;;
14141;SDS011;7151;52.246;4.820;2023-09-18T14:00:07;5.53;;;2.10;;
14141;SDS011;7151;52.246;4.820;2023-09-18T14:02:37;1.90;;;1.40;;
14141;SDS011;7151;52.246;4.820;2023-09-18T14:05:06;2.30;;;1.70;;
14141;SDS011;7151;52.246;4.820;2023-09-18T14:07:33;1.80;;;1.40;;
14141;SDS011;7151;52.246;4.820;2023-09-18T14:09:59;2.03;;;1.50;;
14141;SDS011;7151;52.246;4.820;2023-09-18T14:12:28;2.47;;;1.47;;
14141;SDS011;7151;52.246;4.820;2023-09-18T14:14:56;1.70;;;1.60;;
14141;SDS011;7151;52.246;4.820;2023-09-18T14:17:22;1.97;;;1.60;;
14141;SDS011;7151;52.246;4.820;2023-09-18T14:19:48;2.20;;;1.50;;
14141;SDS011;7151;52.246;4.820;2023-09-18T14:22:15;2.73;;;1.47;;
14141;SDS011;7151;52.246;4.820;2023-09-18T14:24:40;2.97;;;1.40;;
14141;SDS011;7151;52.246;4.820;2023-09-18T14:27:06;1.87;;;1.70;;
14141;SDS011;7151;52.246;4.820;2023-09-18T14:29:33;2.30;;;2.00;;
14141;SDS011;7151;52.246;4.820;2023-09-18T14:32:02;2.40;;;2.10;;
14141;SDS011;7151;52.246;4.820;2023-09-18T14:34:29;2.43;;;1.90;;
14141;SDS011;7151;52.246;4.820;2023-09-18T14:36:55;2.37;;;2.17;;
14141;SDS011;7151;52.246;4.820;2023-09-18T14:39:21;3.50;;;2.27;;
14141;SDS011;7151;52.246;4.820;2023-09-18T14:41:47;4.37;;;2.10;;
14141;SDS011;7151;52.246;4.820;2023-09-18T14:44:13;4.00;;;2.10;;
14141;SDS011;7151;52.246;4.820;2023-09-18T14:46:38;2.70;;;2.50;;
14141;SDS011;7151;52.246;4.820;2023-09-18T14:49:05;4.87;;;2.73;;
14141;SDS011;7151;52.246;4.820;2023-09-18T14:51:32;2.37;;;2.17;;
14141;SDS011;7151;52.246;4.820;2023-09-18T14:53:58;1.87;;;1.67;;
14141;SDS011;7151;52.246;4.820;2023-09-18T14:56:25;2.10;;;1.63;;
14141;SDS011;7151;52.246;4.820;2023-09-18T14:58:51;1.93;;;1.60;;
14141;SDS011;7151;52.246;4.820;2023-09-18T15:01:17;5.03;;;1.83;;
14141;SDS011;7151;52.246;4.820;2023-09-18T15:03:44;1.90;;;1.60;;
14141;SDS011;7151;52.246;4.820;2023-09-18T15:06:10;2.10;;;1.57;;
14141;SDS011;7151;52.246;4.820;2023-09-18T15:08:36;2.47;;;1.47;;